Time;durP1;ratioP1;P1;durP2;ratioP2;P2;SDS_P1;SDS_P2;PMS_P1;PMS_P2;Temp;Humidity;BMP_temperature;BMP_pressure;BME280_temperature;BME280_humidity;BME280_pressure;Samples;Min_cycle;Max_cycle;Signal;HPM_P1;HPM_P2
2023/05/19 00:00:35;;;;;;;9.40;5.00;;;;;;;;;;107610;283;42847;-35
2023/05/19 00:03:26;;;;;;;8.50;4.50;;;;;;;;;;107606;283;42258;-35
2023/05/19 00:06:03;;;;;;;8.60;4.90;;;;;;;;;;107594;283;40100;-35
2023/05/19 00:08:41;;;;;;;9.40;4.60;;;;;;;;;;107616;286;39845;-35
2023/05/19 00:11:17;;;;;;;9.70;4.80;;;;;;;;;;107621;282;42880;-35
2023/05/19 00:13:52;;;;;;;9.20;4.90;;;;;;;;;;107615;286;42388;-35
2023/05/19 00:16:27;;;;;;;9.70;5.10;;;;;;;;;;107500;284;38779;-35
2023/05/19 00:19:03;;;;;;;8.60;4.50;;;;;;;;;;107611;286;39724;-35
2023/05/19 00:21:38;;;;;;;8.00;4.30;;;;;;;;;;107661;283;42985;-33
2023/05/19 00:24:13;;;;;;;8.50;4.50;;;;;;;;;;107603;285;42117;-33
2023/05/19 00:26:46;;;;;;;7.70;4.40;;;;;;;;;;107597;283;38548;-32
2023/05/19 00:29:20;;;;;;;7.40;4.10;;;;;;;;;;107614;283;39710;-33
2023/05/19 00:31:54;;;;;;;8.50;4.30;;;;;;;;;;107619;285;43913;-33
2023/05/19 00:34:29;;;;;;;7.90;4.10;;;;;;;;;;107581;283;42133;-32
2023/05/19 00:37:03;;;;;;;9.20;4.40;;;;;;;;;;107420;286;38834;-33
2023/05/19 00:39:39;;;;;;;7.90;3.70;;;;;;;;;;107619;283;39851;-33
2023/05/19 00:42:14;;;;;;;7.80;3.80;;;;;;;;;;107619;283;42651;-33
2023/05/19 00:44:48;;;;;;;7.40;3.80;;;;;;;;;;107599;283;42172;-33
2023/05/19 00:47:21;;;;;;;7.20;3.60;;;;;;;;;;107546;285;38845;-33
2023/05/19 00:49:55;;;;;;;8.00;3.90;;;;;;;;;;107491;278;175272;-33
2023/05/19 00:52:29;;;;;;;8.20;4.10;;;;;;;;;;107590;283;43071;-33
2023/05/19 00:55:04;;;;;;;8.10;3.80;;;;;;;;;;107593;285;42096;-32
2023/05/19 00:57:39;;;;;;;7.40;3.70;;;;;;;;;;107568;283;38805;-33
2023/05/19 01:00:17;;;;;;;6.20;3.40;;;;;;;;;;107582;283;41147;-33
2023/05/19 01:02:52;;;;;;;6.60;3.60;;;;;;;;;;107618;283;44030;-33
2023/05/19 01:05:27;;;;;;;8.00;3.50;;;;;;;;;;107592;283;43348;-33
2023/05/19 01:08:00;;;;;;;6.60;3.30;;;;;;;;;;107556;278;38907;-33
2023/05/19 01:10:34;;;;;;;6.60;3.40;;;;;;;;;;107600;285;39700;-33
2023/05/19 01:13:08;;;;;;;6.70;3.30;;;;;;;;;;107578;283;44041;-33
2023/05/19 01:15:58;;;;;;;6.40;3.20;;;;;;;;;;107322;287;333010;-33
2023/05/19 01:18:42;;;;;;;6.00;3.10;;;;;;;;;;107522;283;38827;-33
2023/05/19 01:21:44;;;;;;;6.60;3.10;;;;;;;;;;107633;286;39720;-33
2023/05/19 01:24:39;;;;;;;5.80;3.10;;;;;;;;;;107483;283;175701;-33
2023/05/19 01:27:45;;;;;;;6.60;2.90;;;;;;;;;;107579;285;42142;-33
2023/05/19 01:30:30;;;;;;;6.10;2.90;;;;;;;;;;107602;285;40040;-33
2023/05/19 01:33:08;;;;;;;6.70;3.20;;;;;;;;;;107618;283;40888;-33
2023/05/19 01:35:44;;;;;;;6.00;2.70;;;;;;;;;;107657;285;42713;-33
2023/05/19 01:38:20;;;;;;;6.40;2.80;;;;;;;;;;107629;285;42167;-32
2023/05/19 01:40:56;;;;;;;5.20;2.70;;;;;;;;;;107652;285;38813;-32
2023/05/19 01:43:30;;;;;;;5.70;2.80;;;;;;;;;;107605;286;39742;-33
2023/05/19 01:46:05;;;;;;;5.90;2.60;;;;;;;;;;107611;283;44079;-33
2023/05/19 01:48:38;;;;;;;5.40;2.60;;;;;;;;;;107586;285;43297;-33
2023/05/19 01:51:12;;;;;;;5.60;2.70;;;;;;;;;;107603;282;38791;-33
2023/05/19 01:53:46;;;;;;;5.20;2.50;;;;;;;;;;107515;285;175717;-33
2023/05/19 01:56:29;;;;;;;5.40;2.50;;;;;;;;;;107629;285;44047;-32
2023/05/19 01:59:16;;;;;;;5.50;2.70;;;;;;;;;;107612;285;42194;-32
2023/05/19 02:01:56;;;;;;;5.80;2.50;;;;;;;;;;107630;286;38817;-32
2023/05/19 02:04:39;;;;;;;4.70;2.30;;;;;;;;;;107610;285;39846;-32
2023/05/19 02:07:23;;;;;;;5.60;2.90;;;;;;;;;;107586;283;42922;-33
2023/05/19 02:10:03;;;;;;;5.40;2.50;;;;;;;;;;107574;278;42295;-33
2023/05/19 02:12:41;;;;;;;5.30;2.60;;;;;;;;;;107626;282;39833;-33
2023/05/19 02:15:21;;;;;;;4.90;2.50;;;;;;;;;;107596;283;39766;-33
2023/05/19 02:17:55;;;;;;;4.90;2.50;;;;;;;;;;107586;285;42908;-32
2023/05/19 02:20:30;;;;;;;5.00;2.30;;;;;;;;;;107576;283;42604;-33
2023/05/19 02:23:04;;;;;;;4.60;2.30;;;;;;;;;;107614;283;40794;-32
2023/05/19 02:25:41;;;;;;;4.60;2.10;;;;;;;;;;107601;285;40403;-33
2023/05/19 02:28:15;;;;;;;5.30;2.40;;;;;;;;;;107564;286;42850;-34
2023/05/19 02:30:51;;;;;;;5.00;2.60;;;;;;;;;;107600;278;49410;-35
2023/05/19 02:33:29;;;;;;;5.00;2.20;;;;;;;;;;107581;286;39977;-35
2023/05/19 02:36:03;;;;;;;5.10;2.40;;;;;;;;;;107652;286;39734;-35
2023/05/19 02:38:36;;;;;;;4.90;2.40;;;;;;;;;;107615;286;43086;-35
2023/05/19 02:41:10;;;;;;;4.90;2.40;;;;;;;;;;107650;278;42387;-35
2023/05/19 02:43:46;;;;;;;5.60;2.60;;;;;;;;;;107616;286;38928;-35
2023/05/19 02:46:22;;;;;;;4.90;2.50;;;;;;;;;;107612;283;39710;-35
2023/05/19 02:48:59;;;;;;;5.10;2.30;;;;;;;;;;107590;283;43025;-35
2023/05/19 02:51:33;;;;;;;5.10;2.30;;;;;;;;;;107634;283;42133;-35
2023/05/19 02:54:08;;;;;;;5.30;2.30;;;;;;;;;;107633;283;38790;-35
2023/05/19 02:56:43;;;;;;;4.50;2.30;;;;;;;;;;107639;286;39865;-35
2023/05/19 02:59:19;;;;;;;4.40;2.20;;;;;;;;;;107626;286;44210;-35
2023/05/19 03:01:56;;;;;;;4.50;2.20;;;;;;;;;;107646;283;42201;-35
2023/05/19 03:04:31;;;;;;;4.50;2.00;;;;;;;;;;107524;286;175618;-35
2023/05/19 03:07:06;;;;;;;4.80;2.20;;;;;;;;;;107656;286;39754;-35
2023/05/19 03:09:41;;;;;;;4.90;2.30;;;;;;;;;;107605;285;44062;-35
2023/05/19 03:12:16;;;;;;;4.80;2.30;;;;;;;;;;107655;286;41938;-35
2023/05/19 03:14:53;;;;;;;4.70;2.20;;;;;;;;;;107670;283;38821;-35
2023/05/19 03:17:32;;;;;;;4.20;2.10;;;;;;;;;;107675;283;39729;-35
2023/05/19 03:20:10;;;;;;;5.20;2.20;;;;;;;;;;107634;286;43998;-35
2023/05/19 03:22:47;;;;;;;4.60;2.20;;;;;;;;;;107687;286;43250;-35
2023/05/19 03:25:27;;;;;;;4.40;2.30;;;;;;;;;;107656;286;38933;-35
2023/05/19 03:28:01;;;;;;;4.40;2.30;;;;;;;;;;107635;286;39900;-35
2023/05/19 03:30:35;;;;;;;4.70;2.20;;;;;;;;;;107635;278;42969;-35
2023/05/19 03:33:11;;;;;;;4.50;2.20;;;;;;;;;;107637;283;42243;-35
2023/05/19 03:35:46;;;;;;;4.30;2.20;;;;;;;;;;107591;290;39819;-35
2023/05/19 03:38:22;;;;;;;4.40;2.20;;;;;;;;;;107575;290;41084;-35
2023/05/19 03:40:56;;;;;;;4.30;2.20;;;;;;;;;;107565;290;44057;-35
2023/05/19 03:43:30;;;;;;;4.20;2.30;;;;;;;;;;107604;286;43258;-35
2023/05/19 03:46:03;;;;;;;4.70;2.30;;;;;;;;;;107624;286;39966;-35
2023/05/19 03:48:37;;;;;;;4.50;2.40;;;;;;;;;;107621;285;39729;-35
2023/05/19 03:51:11;;;;;;;4.50;2.00;;;;;;;;;;107578;282;43196;-35
2023/05/19 03:53:45;;;;;;;4.40;2.20;;;;;;;;;;107589;286;42263;-35
2023/05/19 03:56:22;;;;;;;4.20;2.10;;;;;;;;;;107501;286;175644;-34
2023/05/19 03:58:57;;;;;;;4.60;2.10;;;;;;;;;;107604;286;39723;-35
2023/05/19 04:01:30;;;;;;;4.70;2.30;;;;;;;;;;107588;285;42991;-35
2023/05/19 04:04:24;;;;;;;4.30;2.20;;;;;;;;;;107619;286;42163;-35
2023/05/19 04:07:18;;;;;;;4.30;2.00;;;;;;;;;;107577;286;38924;-33
2023/05/19 04:09:52;;;;;;;4.20;2.30;;;;;;;;;;107613;283;40000;-33
2023/05/19 04:12:27;;;;;;;4.10;2.10;;;;;;;;;;107570;287;42908;-33
2023/05/19 04:15:02;;;;;;;4.20;2.10;;;;;;;;;;107608;286;43207;-33
2023/05/19 04:17:38;;;;;;;4.50;2.20;;;;;;;;;;107614;286;38601;-33
2023/05/19 04:20:15;;;;;;;4.70;2.30;;;;;;;;;;107606;286;39715;-32
2023/05/19 04:22:49;;;;;;;3.90;1.90;;;;;;;;;;107683;283;51057;-32
2023/05/19 04:25:24;;;;;;;4.20;2.00;;;;;;;;;;107636;287;42165;-33
2023/05/19 04:27:59;;;;;;;4.40;2.30;;;;;;;;;;107641;286;39230;-32
2023/05/19 04:30:35;;;;;;;4.10;2.00;;;;;;;;;;107632;287;39694;-32
2023/05/19 04:33:09;;;;;;;4.30;2.00;;;;;;;;;;107566;286;50700;-32
2023/05/19 04:35:45;;;;;;;4.80;2.20;;;;;;;;;;107595;283;43296;-32
2023/05/19 04:38:20;;;;;;;4.30;2.00;;;;;;;;;;107604;286;39212;-33
2023/05/19 04:41:00;;;;;;;4.30;2.20;;;;;;;;;;107615;285;39645;-32
2023/05/19 04:43:34;;;;;;;5.00;2.20;;;;;;;;;;107546;286;48654;-32
2023/05/19 04:46:11;;;;;;;4.20;2.00;;;;;;;;;;107608;283;42282;-34
2023/05/19 04:48:48;;;;;;;3.80;1.80;;;;;;;;;;107610;283;38782;-35
2023/05/19 04:51:27;;;;;;;4.20;2.10;;;;;;;;;;107580;285;40983;-35
2023/05/19 04:54:05;;;;;;;4.00;2.10;;;;;;;;;;107593;283;48950;-35
2023/05/19 04:56:39;;;;;;;4.20;2.00;;;;;;;;;;107583;283;41918;-35
2023/05/19 04:59:13;;;;;;;4.20;1.90;;;;;;;;;;107601;285;38935;-35
2023/05/19 05:01:47;;;;;;;4.10;2.10;;;;;;;;;;107561;285;40930;-35
2023/05/19 05:04:21;;;;;;;4.00;1.90;;;;;;;;;;107613;286;48682;-35
2023/05/19 05:06:57;;;;;;;4.10;2.10;;;;;;;;;;107623;278;42467;-35
2023/05/19 05:09:31;;;;;;;3.80;2.00;;;;;;;;;;107608;286;38548;-35
2023/05/19 05:12:07;;;;;;;4.00;2.00;;;;;;;;;;107584;283;39710;-35
2023/05/19 05:14:42;;;;;;;4.00;1.80;;;;;;;;;;107587;283;50059;-35
2023/05/19 05:17:17;;;;;;;4.20;2.00;;;;;;;;;;107613;282;42850;-35
2023/05/19 05:19:53;;;;;;;4.00;2.00;;;;;;;;;;107596;283;39958;-35
2023/05/19 05:22:29;;;;;;;4.60;2.00;;;;;;;;;;107571;283;39739;-35
2023/05/19 05:25:07;;;;;;;4.50;2.10;;;;;;;;;;107597;283;48781;-35
2023/05/19 05:27:42;;;;;;;4.50;2.00;;;;;;;;;;107619;283;42147;-35
2023/05/19 05:30:17;;;;;;;3.90;1.90;;;;;;;;;;107532;284;38630;-35
2023/05/19 05:32:51;;;;;;;4.20;2.00;;;;;;;;;;107550;285;39750;-35
2023/05/19 05:35:28;;;;;;;3.80;1.80;;;;;;;;;;107608;285;42643;-32
2023/05/19 05:38:02;;;;;;;4.90;2.00;;;;;;;;;;107613;285;41869;-32
2023/05/19 05:40:36;;;;;;;4.60;2.00;;;;;;;;;;107614;285;38895;-32
2023/05/19 05:43:14;;;;;;;4.10;1.90;;;;;;;;;;107577;285;39824;-32
2023/05/19 05:45:49;;;;;;;4.60;1.90;;;;;;;;;;107509;285;175989;-32
2023/05/19 05:48:27;;;;;;;4.20;1.80;;;;;;;;;;107629;285;42203;-34
2023/05/19 05:51:02;;;;;;;4.30;2.00;;;;;;;;;;107609;282;38809;-35
2023/05/19 05:53:43;;;;;;;4.00;1.80;;;;;;;;;;107600;283;39851;-35
2023/05/19 05:56:19;;;;;;;4.40;1.90;;;;;;;;;;107594;286;44042;-35
2023/05/19 05:58:54;;;;;;;5.20;2.00;;;;;;;;;;107593;283;42081;-32
2023/05/19 06:01:31;;;;;;;4.80;1.90;;;;;;;;;;107598;283;38822;-32
2023/05/19 06:04:08;;;;;;;4.90;1.90;;;;;;;;;;107571;283;39916;-32
2023/05/19 06:06:41;;;;;;;4.50;1.70;;;;;;;;;;107599;285;42877;-33
2023/05/19 06:09:15;;;;;;;5.50;2.00;;;;;;;;;;107615;283;42271;-32
2023/05/19 06:11:49;;;;;;;3.90;1.70;;;;;;;;;;107638;285;39426;-32
2023/05/19 06:14:24;;;;;;;4.20;1.90;;;;;;;;;;107651;286;39867;-33
2023/05/19 06:16:58;;;;;;;4.20;1.70;;;;;;;;;;107616;282;42939;-32
2023/05/19 06:19:32;;;;;;;5.20;1.90;;;;;;;;;;107604;281;42218;-32
2023/05/19 06:22:07;;;;;;;4.40;2.00;;;;;;;;;;107621;282;38822;-32
2023/05/19 06:24:42;;;;;;;3.70;1.70;;;;;;;;;;107621;282;39744;-33
2023/05/19 06:27:15;;;;;;;4.20;1.80;;;;;;;;;;107595;286;42982;-32
2023/05/19 06:29:50;;;;;;;3.90;1.80;;;;;;;;;;107634;286;42278;-32
2023/05/19 06:32:24;;;;;;;4.70;2.00;;;;;;;;;;107633;286;38773;-33
2023/05/19 06:34:57;;;;;;;3.80;1.90;;;;;;;;;;107613;283;39722;-33
2023/05/19 06:37:31;;;;;;;3.90;1.70;;;;;;;;;;107679;283;43046;-32
2023/05/19 06:40:07;;;;;;;3.70;1.70;;;;;;;;;;107672;283;43417;-32
2023/05/19 06:42:42;;;;;;;4.80;1.90;;;;;;;;;;107672;286;38820;-32
2023/05/19 06:45:20;;;;;;;5.70;1.90;;;;;;;;;;107593;278;39678;-32
2023/05/19 06:47:57;;;;;;;5.20;2.00;;;;;;;;;;107621;290;44203;-32
2023/05/19 06:50:34;;;;;;;5.30;1.90;;;;;;;;;;107623;283;42184;-32
2023/05/19 06:53:10;;;;;;;6.40;2.20;;;;;;;;;;107599;286;38830;-33
2023/05/19 06:55:44;;;;;;;4.70;1.90;;;;;;;;;;107587;285;40844;-32
2023/05/19 06:58:32;;;;;;;5.60;2.20;;;;;;;;;;107683;286;43015;-33
2023/05/19 07:01:05;;;;;;;6.80;2.10;;;;;;;;;;107653;285;43484;-33
2023/05/19 07:03:40;;;;;;;4.60;1.80;;;;;;;;;;107640;283;192054;-33
2023/05/19 07:06:15;;;;;;;5.50;2.00;;;;;;;;;;107648;286;39726;-33
2023/05/19 07:08:49;;;;;;;4.90;1.90;;;;;;;;;;107607;287;43967;-32
2023/05/19 07:11:23;;;;;;;4.60;1.80;;;;;;;;;;107608;286;42961;-33
2023/05/19 07:13:57;;;;;;;4.10;2.10;;;;;;;;;;107631;282;38611;-34
2023/05/19 07:16:30;;;;;;;5.10;1.90;;;;;;;;;;107596;286;39830;-35
2023/05/19 07:19:05;;;;;;;4.40;1.90;;;;;;;;;;107639;286;42676;-35
2023/05/19 07:21:42;;;;;;;5.10;1.80;;;;;;;;;;107622;286;41927;-35
2023/05/19 07:24:15;;;;;;;5.10;1.80;;;;;;;;;;107508;283;175624;-35
2023/05/19 07:26:50;;;;;;;5.80;1.90;;;;;;;;;;107484;285;39756;-37
2023/05/19 07:29:26;;;;;;;4.50;1.80;;;;;;;;;;107470;283;44122;-37
2023/05/19 07:32:02;;;;;;;5.40;1.90;;;;;;;;;;107518;279;42160;-35
2023/05/19 07:34:39;;;;;;;3.90;1.80;;;;;;;;;;107511;279;38902;-34
2023/05/19 07:37:13;;;;;;;4.40;1.80;;;;;;;;;;107515;283;40845;-36
2023/05/19 07:39:49;;;;;;;4.40;1.90;;;;;;;;;;107481;284;44131;-33
2023/05/19 07:42:25;;;;;;;4.10;1.60;;;;;;;;;;107494;286;43270;-34
2023/05/19 07:44:59;;;;;;;4.30;1.70;;;;;;;;;;107524;286;39116;-34
2023/05/19 07:47:34;;;;;;;4.90;1.70;;;;;;;;;;107477;286;39687;-35
2023/05/19 07:50:10;;;;;;;4.50;1.70;;;;;;;;;;107517;283;42860;-37
2023/05/19 07:52:43;;;;;;;4.30;1.80;;;;;;;;;;107544;283;43261;-34
2023/05/19 07:55:18;;;;;;;4.80;1.60;;;;;;;;;;107409;283;175608;-35
2023/05/19 07:57:52;;;;;;;4.80;1.70;;;;;;;;;;107630;286;46573;-35
2023/05/19 08:00:26;;;;;;;4.10;1.50;;;;;;;;;;107571;283;43012;-35
2023/05/19 08:03:00;;;;;;;3.90;1.60;;;;;;;;;;107523;286;42336;-35
2023/05/19 08:05:35;;;;;;;3.90;1.70;;;;;;;;;;107546;286;38783;-35
2023/05/19 08:08:10;;;;;;;3.60;1.60;;;;;;;;;;107484;286;46447;-35
2023/05/19 08:10:44;;;;;;;4.20;1.70;;;;;;;;;;107554;283;42661;-35
2023/05/19 08:13:18;;;;;;;4.50;1.80;;;;;;;;;;107527;286;42438;-36
2023/05/19 08:15:53;;;;;;;4.10;1.80;;;;;;;;;;107536;286;38792;-35
2023/05/19 08:18:27;;;;;;;3.70;1.50;;;;;;;;;;107487;286;46669;-36
2023/05/19 08:21:03;;;;;;;5.10;1.80;;;;;;;;;;107530;286;44056;-37
2023/05/19 08:23:41;;;;;;;4.20;1.60;;;;;;;;;;107527;286;42032;-36
2023/05/19 08:26:15;;;;;;;4.00;1.50;;;;;;;;;;107517;286;39073;-36
2023/05/19 08:28:51;;;;;;;4.10;1.80;;;;;;;;;;107506;283;40103;-36
2023/05/19 08:31:25;;;;;;;4.90;1.80;;;;;;;;;;107521;286;43933;-35
2023/05/19 08:33:58;;;;;;;4.00;1.70;;;;;;;;;;107510;283;41881;-35
2023/05/19 08:36:32;;;;;;;4.60;1.60;;;;;;;;;;107507;283;38515;-33
2023/05/19 08:39:06;;;;;;;3.90;1.50;;;;;;;;;;107410;283;175074;-35
2023/05/19 08:41:39;;;;;;;3.60;1.60;;;;;;;;;;107401;286;42831;-35
2023/05/19 08:44:18;;;;;;;4.10;1.60;;;;;;;;;;107543;286;42067;-35
2023/05/19 08:46:53;;;;;;;4.40;1.60;;;;;;;;;;107509;283;38736;-35
2023/05/19 08:49:35;;;;;;;3.50;1.50;;;;;;;;;;107523;283;45668;-36
2023/05/19 08:52:19;;;;;;;4.50;1.70;;;;;;;;;;107508;283;42758;-35
2023/05/19 08:55:01;;;;;;;3.90;1.70;;;;;;;;;;107553;283;41913;-35
2023/05/19 08:57:34;;;;;;;4.30;1.50;;;;;;;;;;107445;286;38520;-35
2023/05/19 09:00:11;;;;;;;4.60;1.50;;;;;;;;;;107477;283;39501;-35
2023/05/19 09:02:45;;;;;;;4.30;1.60;;;;;;;;;;107517;279;43412;-36
2023/05/19 09:05:40;;;;;;;3.30;1.50;;;;;;;;;;107509;285;42045;-35
2023/05/19 09:08:14;;;;;;;3.60;1.50;;;;;;;;;;107514;282;38812;-37
2023/05/19 09:10:48;;;;;;;3.50;1.50;;;;;;;;;;107499;282;39480;-37
2023/05/19 09:13:23;;;;;;;4.00;1.70;;;;;;;;;;107398;286;175618;-38
2023/05/19 09:15:59;;;;;;;3.40;1.60;;;;;;;;;;107099;286;531467;-38
2023/05/19 09:18:34;;;;;;;3.50;1.50;;;;;;;;;;107414;286;38831;-41
2023/05/19 09:21:11;;;;;;;3.80;1.60;;;;;;;;;;107394;286;39519;-40
2023/05/19 09:23:50;;;;;;;4.40;1.70;;;;;;;;;;107476;279;42981;-38
2023/05/19 09:26:24;;;;;;;4.40;1.80;;;;;;;;;;107534;283;42293;-37
2023/05/19 09:29:02;;;;;;;3.60;1.70;;;;;;;;;;107538;283;39908;-37
2023/05/19 09:31:39;;;;;;;4.10;1.70;;;;;;;;;;107559;285;39815;-37
2023/05/19 09:34:18;;;;;;;4.00;1.80;;;;;;;;;;107511;286;42905;-37
2023/05/19 09:36:53;;;;;;;5.40;2.40;;;;;;;;;;107561;285;41931;-37
2023/05/19 09:39:29;;;;;;;6.40;1.80;;;;;;;;;;107382;283;192386;-37
2023/05/19 09:42:07;;;;;;;4.00;1.60;;;;;;;;;;107513;283;39430;-38
2023/05/19 09:44:42;;;;;;;3.50;1.60;;;;;;;;;;107471;279;42734;-36
2023/05/19 09:47:17;;;;;;;4.00;1.60;;;;;;;;;;107507;279;42112;-37
2023/05/19 09:49:53;;;;;;;3.60;1.70;;;;;;;;;;107470;286;38659;-36
2023/05/19 09:52:28;;;;;;;3.80;1.60;;;;;;;;;;107540;283;39448;-36
2023/05/19 09:55:03;;;;;;;4.60;1.60;;;;;;;;;;107490;286;43142;-37
2023/05/19 09:57:40;;;;;;;4.00;1.60;;;;;;;;;;107580;283;42241;-37
2023/05/19 10:00:16;;;;;;;4.40;1.50;;;;;;;;;;107501;283;38925;-36
2023/05/19 10:02:51;;;;;;;4.10;1.60;;;;;;;;;;107365;286;175621;-36
2023/05/19 10:05:26;;;;;;;3.60;1.40;;;;;;;;;;107493;286;42699;-36
2023/05/19 10:08:00;;;;;;;3.40;1.50;;;;;;;;;;107509;283;42098;-37
2023/05/19 10:10:34;;;;;;;4.20;1.80;;;;;;;;;;107466;283;38888;-36
2023/05/19 10:13:09;;;;;;;4.60;1.60;;;;;;;;;;107583;286;39515;-37
2023/05/19 10:15:45;;;;;;;4.00;1.50;;;;;;;;;;107467;286;42910;-37
2023/05/19 10:18:28;;;;;;;3.90;1.60;;;;;;;;;;107548;285;42129;-36
2023/05/19 10:21:04;;;;;;;3.70;1.70;;;;;;;;;;107506;285;39822;-36
2023/05/19 10:23:39;;;;;;;3.90;1.60;;;;;;;;;;107524;283;39492;-37
2023/05/19 10:26:16;;;;;;;3.70;1.60;;;;;;;;;;107548;286;44069;-40
2023/05/19 10:28:52;;;;;;;3.40;1.60;;;;;;;;;;107532;283;41930;-36
2023/05/19 10:31:26;;;;;;;4.30;2.00;;;;;;;;;;107554;286;39418;-36
2023/05/19 10:34:21;;;;;;;4.10;1.60;;;;;;;;;;107570;283;40876;-36
2023/05/19 10:37:12;;;;;;;3.80;1.70;;;;;;;;;;107531;287;42867;-36
2023/05/19 10:39:46;;;;;;;4.10;1.70;;;;;;;;;;107555;283;43286;-37
2023/05/19 10:42:36;;;;;;;4.00;1.60;;;;;;;;;;107498;286;38577;-36
2023/05/19 10:45:19;;;;;;;4.10;1.90;;;;;;;;;;107550;283;39510;-39
2023/05/19 10:47:56;;;;;;;4.20;1.60;;;;;;;;;;107608;286;42880;-39
2023/05/19 10:50:37;;;;;;;4.90;1.80;;;;;;;;;;107498;286;42060;-38
2023/05/19 10:53:18;;;;;;;3.70;1.60;;;;;;;;;;107553;283;38543;-37
2023/05/19 10:55:57;;;;;;;3.60;1.50;;;;;;;;;;107676;286;39518;-38
2023/05/19 10:58:50;;;;;;;4.80;1.80;;;;;;;;;;107520;286;42946;-37
2023/05/19 11:01:29;;;;;;;3.30;1.60;;;;;;;;;;107539;283;43151;-35
2023/05/19 11:04:10;;;;;;;3.90;1.80;;;;;;;;;;107467;286;175055;-36
2023/05/19 11:06:53;;;;;;;3.90;1.60;;;;;;;;;;107323;286;176794;-36
2023/05/19 11:09:29;;;;;;;3.90;1.80;;;;;;;;;;107551;283;42903;-35
2023/05/19 11:12:14;;;;;;;4.10;1.70;;;;;;;;;;107538;286;48835;-37
2023/05/19 11:14:47;;;;;;;4.10;1.80;;;;;;;;;;107618;286;39700;-37
2023/05/19 11:17:22;;;;;;;3.70;1.60;;;;;;;;;;107509;283;41747;-37
2023/05/19 11:19:58;;;;;;;4.00;1.50;;;;;;;;;;107604;283;44399;-38
2023/05/19 11:22:31;;;;;;;4.20;1.70;;;;;;;;;;107583;286;49288;-37
2023/05/19 11:25:08;;;;;;;3.60;1.70;;;;;;;;;;107468;287;39021;-37
2023/05/19 11:27:43;;;;;;;3.80;1.60;;;;;;;;;;107584;286;39708;-40
2023/05/19 11:30:19;;;;;;;3.90;1.70;;;;;;;;;;107533;283;42913;-36
2023/05/19 11:32:52;;;;;;;4.10;1.80;;;;;;;;;;107669;283;50078;-37
2023/05/19 11:35:26;;;;;;;3.50;1.60;;;;;;;;;;107526;283;39963;-38
2023/05/19 11:38:03;;;;;;;4.20;1.90;;;;;;;;;;107549;286;40867;-37
2023/05/19 11:40:36;;;;;;;3.60;1.70;;;;;;;;;;107404;284;42870;-37
2023/05/19 11:43:10;;;;;;;3.80;1.80;;;;;;;;;;107439;283;49644;-37
2023/05/19 11:45:43;;;;;;;3.70;1.70;;;;;;;;;;107577;286;39931;-37
2023/05/19 11:48:17;;;;;;;3.80;1.70;;;;;;;;;;107522;283;40891;-37
2023/05/19 11:50:51;;;;;;;4.00;1.80;;;;;;;;;;107620;283;44066;-37
2023/05/19 11:53:30;;;;;;;3.80;1.60;;;;;;;;;;107431;286;47278;-37
2023/05/19 11:56:06;;;;;;;;;;;;;;;;;;107395;285;39141;-37
2023/05/19 11:58:40;;;;;;;3.70;1.50;;;;;;;;;;107525;283;39819;-38
2023/05/19 12:01:14;;;;;;;4.70;1.80;;;;;;;;;;107531;286;42969;-37
2023/05/19 12:03:50;;;;;;;3.70;1.70;;;;;;;;;;107407;286;175602;-36
2023/05/19 12:06:27;;;;;;;5.20;1.80;;;;;;;;;;107522;286;39647;-37
2023/05/19 12:09:01;;;;;;;4.30;1.70;;;;;;;;;;107505;283;41891;-36
2023/05/19 12:11:40;;;;;;;4.30;1.70;;;;;;;;;;107469;286;43109;-36
2023/05/19 12:14:14;;;;;;;4.50;2.00;;;;;;;;;;107513;286;47810;-38
2023/05/19 12:16:48;;;;;;;3.90;1.70;;;;;;;;;;107515;286;38821;-38
2023/05/19 12:19:24;;;;;;;3.80;1.70;;;;;;;;;;107476;286;41098;-39
2023/05/19 12:21:58;;;;;;;4.00;1.70;;;;;;;;;;107406;287;43007;-38
2023/05/19 12:24:32;;;;;;;4.00;1.80;;;;;;;;;;107480;286;47336;-38
2023/05/19 12:27:14;;;;;;;4.30;1.70;;;;;;;;;;107554;278;38916;-39
2023/05/19 12:29:53;;;;;;;3.50;1.60;;;;;;;;;;107506;286;41058;-38
2023/05/19 12:32:28;;;;;;;4.60;1.70;;;;;;;;;;107514;283;44200;-36
2023/05/19 12:35:04;;;;;;;4.20;1.70;;;;;;;;;;107571;286;42340;-35
2023/05/19 12:37:42;;;;;;;4.40;1.70;;;;;;;;;;107538;285;38756;-37
2023/05/19 12:40:18;;;;;;;3.50;1.70;;;;;;;;;;107512;283;39706;-36
2023/05/19 12:42:56;;;;;;;3.70;1.80;;;;;;;;;;107488;286;42914;-35
2023/05/19 12:45:32;;;;;;;3.70;1.80;;;;;;;;;;107560;286;42158;-37
2023/05/19 12:48:14;;;;;;;3.80;1.80;;;;;;;;;;107515;286;40121;-35
2023/05/19 12:50:54;;;;;;;4.10;1.80;;;;;;;;;;107485;284;39744;-36
2023/05/19 12:53:32;;;;;;;3.70;1.80;;;;;;;;;;107474;286;43911;-33
2023/05/19 12:56:17;;;;;;;4.30;1.80;;;;;;;;;;107527;279;42128;-33
2023/05/19 12:58:56;;;;;;;3.70;1.60;;;;;;;;;;107462;286;38863;-33
2023/05/19 13:01:31;;;;;;;4.00;1.80;;;;;;;;;;107538;282;39769;-33
2023/05/19 13:04:04;;;;;;;6.50;2.00;;;;;;;;;;107585;285;42963;-33
2023/05/19 13:06:40;;;;;;;3.70;1.70;;;;;;;;;;107617;285;44240;-33
2023/05/19 13:09:17;;;;;;;5.20;1.80;;;;;;;;;;107571;285;38962;-33
2023/05/19 13:11:52;;;;;;;3.90;1.80;;;;;;;;;;107533;285;39434;-33
2023/05/19 13:14:26;;;;;;;4.20;1.80;;;;;;;;;;107467;286;42880;-33
2023/05/19 13:16:59;;;;;;;4.70;1.90;;;;;;;;;;107535;283;42437;-33
2023/05/19 13:19:34;;;;;;;3.80;1.60;;;;;;;;;;106886;283;891644;-34
2023/05/19 13:22:09;;;;;;;4.50;1.90;;;;;;;;;;107551;285;39616;-35
2023/05/19 13:24:44;;;;;;;4.30;1.90;;;;;;;;;;107468;282;43071;-35
2023/05/19 13:27:21;;;;;;;4.30;1.70;;;;;;;;;;107557;283;42384;-37
2023/05/19 13:29:54;;;;;;;3.70;1.80;;;;;;;;;;107579;286;39852;-34
2023/05/19 13:32:29;;;;;;;3.20;1.50;;;;;;;;;;107564;279;39743;-33
2023/05/19 13:35:04;;;;;;;4.10;2.00;;;;;;;;;;107486;283;42837;-35
2023/05/19 13:37:38;;;;;;;4.40;1.90;;;;;;;;;;107508;283;42306;-34
2023/05/19 13:40:15;;;;;;;3.90;1.70;;;;;;;;;;107499;286;38973;-35
2023/05/19 13:42:49;;;;;;;4.10;1.90;;;;;;;;;;107453;286;175586;-34
2023/05/19 13:45:22;;;;;;;3.60;1.70;;;;;;;;;;107487;283;42983;-34
2023/05/19 13:47:57;;;;;;;4.60;2.20;;;;;;;;;;107563;286;42277;-33
2023/05/19 13:50:30;;;;;;;4.60;1.80;;;;;;;;;;107540;286;38809;-33
2023/05/19 13:53:04;;;;;;;4.30;2.00;;;;;;;;;;107558;283;39678;-33
2023/05/19 13:55:39;;;;;;;3.90;1.80;;;;;;;;;;107491;286;43151;-33
2023/05/19 13:58:16;;;;;;;5.10;2.20;;;;;;;;;;107528;286;42159;-33
2023/05/19 14:00:55;;;;;;;11.60;5.50;;;;;;;;;;107553;283;38948;-33
2023/05/19 14:03:29;;;;;;;10.30;4.60;;;;;;;;;;107473;285;40829;-33
2023/05/19 14:06:02;;;;;;;13.30;6.70;;;;;;;;;;107405;286;43989;-33
2023/05/19 14:08:37;;;;;;;15.90;6.90;;;;;;;;;;107465;283;41889;-34
2023/05/19 14:11:10;;;;;;;14.00;6.40;;;;;;;;;;107449;283;39973;-34
2023/05/19 14:13:43;;;;;;;12.10;5.80;;;;;;;;;;107455;283;39459;-34
2023/05/19 14:16:19;;;;;;;10.90;5.20;;;;;;;;;;107410;283;42994;-34
2023/05/19 14:18:54;;;;;;;11.30;5.80;;;;;;;;;;107331;283;42188;-34
2023/05/19 14:21:29;;;;;;;12.20;5.50;;;;;;;;;;107335;286;175563;-34
2023/05/19 14:24:04;;;;;;;12.20;5.30;;;;;;;;;;107485;286;40889;-34
2023/05/19 14:26:38;;;;;;;11.00;5.30;;;;;;;;;;107417;286;42909;-35
2023/05/19 14:29:11;;;;;;;9.50;4.70;;;;;;;;;;107425;285;42869;-34
2023/05/19 14:31:48;;;;;;;9.90;4.80;;;;;;;;;;107444;286;40015;-35
2023/05/19 14:34:21;;;;;;;10.10;4.80;;;;;;;;;;107417;283;39726;-34
2023/05/19 14:36:56;;;;;;;10.40;4.90;;;;;;;;;;107436;286;44057;-34
2023/05/19 14:39:33;;;;;;;9.80;4.70;;;;;;;;;;107456;286;43386;-34
2023/05/19 14:42:08;;;;;;;10.20;4.60;;;;;;;;;;107501;283;38930;-34
2023/05/19 14:44:46;;;;;;;9.60;4.40;;;;;;;;;;107448;286;42320;-35
2023/05/19 14:47:21;;;;;;;9.60;4.50;;;;;;;;;;107410;286;49804;-34
2023/05/19 14:49:58;;;;;;;8.00;3.90;;;;;;;;;;107447;287;42338;-33
2023/05/19 14:52:33;;;;;;;8.70;4.00;;;;;;;;;;107457;283;38808;-34
2023/05/19 14:55:09;;;;;;;8.00;4.00;;;;;;;;;;107420;283;41044;-35
2023/05/19 14:57:47;;;;;;;6.80;3.50;;;;;;;;;;107459;283;49111;-35
2023/05/19 15:00:24;;;;;;;7.70;3.60;;;;;;;;;;107462;283;42278;-34
2023/05/19 15:03:01;;;;;;;7.40;3.20;;;;;;;;;;107455;291;39102;-33
2023/05/19 15:05:36;;;;;;;12.10;5.90;;;;;;;;;;107332;286;39717;-33
2023/05/19 15:08:12;;;;;;;10.00;5.20;;;;;;;;;;107458;282;43036;-34
2023/05/19 15:10:50;;;;;;;9.60;4.90;;;;;;;;;;107429;286;42309;-34
2023/05/19 15:13:25;;;;;;;8.90;4.60;;;;;;;;;;107465;283;38974;-33
2023/05/19 15:16:02;;;;;;;9.30;4.50;;;;;;;;;;107420;283;39490;-32
2023/05/19 15:18:50;;;;;;;9.20;4.70;;;;;;;;;;107489;283;44073;-34
2023/05/19 15:21:27;;;;;;;10.90;4.50;;;;;;;;;;107503;286;42419;-35
2023/05/19 15:24:00;;;;;;;9.20;4.70;;;;;;;;;;107465;286;38791;-33
2023/05/19 15:26:36;;;;;;;7.90;4.40;;;;;;;;;;107396;286;39750;-33
2023/05/19 15:29:10;;;;;;;14.10;7.50;;;;;;;;;;107432;286;42911;-33
2023/05/19 15:31:47;;;;;;;18.60;10.20;;;;;;;;;;107450;286;42813;-33
2023/05/19 15:34:20;;;;;;;21.90;12.30;;;;;;;;;;107458;283;38822;-33